Aloha, Oregon
Current Conditions -  °F | °C
As of 10:53 AM on Thursday 18 Dec 2014 (Local Time) from KHIO Reporting Station
Overcast Overcast  
Wind Chill: 42°   Ceiling: 3200
Heat Index: 46°   Visibility: 10mi
Dew Point: 44°   Wind: 7mph
Humidity: 93%   Direction: 160°SSE
Pressure: 29.93"   Gusts: NA
Location:  45.49°N, 122.86°W
Report Text: KHIO 181853Z 16006KT 10SM OVC032 08/07 A2993 RMK AO2 SLP136 T00780067
Loading
Personal Weather Stations






























Interactive Weather Map New forecast layout! Learn more

10-Day Weather Forecast

Advertisements
Track Severe Weather on mobile